createdAt,value
2022-10-18T00:00:13.560Z,17.23
2022-10-18T00:02:41.310Z,17.18
2022-10-18T00:05:09.584Z,17.15
2022-10-18T00:07:37.218Z,17.13
2022-10-18T00:10:05.982Z,17.16
2022-10-18T00:12:35.463Z,17.28
2022-10-18T00:15:06.598Z,17.24
2022-10-18T00:17:35.341Z,17.30
2022-10-18T00:20:03.024Z,17.15
2022-10-18T00:22:30.908Z,17.23
2022-10-18T00:24:58.664Z,17.19
2022-10-18T00:27:26.317Z,17.30
2022-10-18T00:29:54.233Z,17.12
2022-10-18T00:32:23.117Z,16.99
2022-10-18T00:34:50.840Z,16.88
2022-10-18T00:37:18.868Z,16.83
2022-10-18T00:39:46.440Z,16.91
2022-10-18T00:42:17.345Z,17.03
2022-10-18T00:45:16.420Z,16.99
2022-10-18T00:47:49.829Z,17.16
2022-10-18T00:50:17.713Z,17.28
2022-10-18T00:52:50.093Z,17.16
2022-10-18T00:55:18.698Z,16.96
2022-10-18T00:57:47.151Z,16.88
2022-10-18T01:00:15.393Z,16.78
2022-10-18T01:02:45.804Z,16.71
2022-10-18T01:05:14.952Z,16.88
2022-10-18T01:08:08.506Z,16.99
2022-10-18T01:10:44.325Z,17.10
2022-10-18T01:13:27.124Z,17.02
2022-10-18T01:16:01.260Z,16.80
2022-10-18T01:18:36.421Z,16.83
2022-10-18T01:21:31.644Z,16.94
2022-10-18T01:24:16.532Z,17.19
2022-10-18T01:27:06.432Z,17.12
2022-10-18T01:29:44.604Z,16.99
2022-10-18T01:32:18.047Z,16.96
2022-10-18T01:34:48.528Z,16.99
2022-10-18T01:37:19.535Z,17.04
2022-10-18T01:39:48.846Z,17.07
2022-10-18T01:42:21.138Z,16.91
2022-10-18T01:44:51.600Z,16.76
2022-10-18T01:47:21.924Z,16.63
2022-10-18T01:49:49.526Z,16.69
2022-10-18T01:52:17.815Z,16.76
2022-10-18T01:54:49.946Z,16.79
2022-10-18T01:57:24.795Z,16.83
2022-10-18T01:59:59.118Z,16.78
2022-10-18T02:02:42.068Z,16.69
2022-10-18T02:05:18.829Z,16.68
2022-10-18T02:08:05.641Z,16.62
2022-10-18T02:10:45.852Z,16.64
2022-10-18T02:13:16.945Z,16.54
2022-10-18T02:15:48.535Z,16.57
2022-10-18T02:18:22.654Z,16.47
2022-10-18T02:20:52.195Z,16.51
2022-10-18T02:23:24.106Z,16.58
2022-10-18T02:25:52.818Z,16.57
2022-10-18T02:28:20.634Z,16.51
2022-10-18T02:30:54.439Z,16.60
2022-10-18T02:33:32.647Z,16.59
2022-10-18T02:36:05.371Z,16.66
2022-10-18T02:38:33.912Z,16.67
2022-10-18T02:41:01.632Z,16.73
2022-10-18T02:43:29.178Z,16.98
2022-10-18T02:45:56.877Z,17.28
2022-10-18T02:48:25.780Z,17.45
2022-10-18T02:50:53.360Z,17.39
2022-10-18T02:53:20.974Z,17.31
2022-10-18T02:55:48.575Z,17.13
2022-10-18T02:58:16.147Z,17.07
2022-10-18T03:00:43.733Z,16.85
2022-10-18T03:03:18.845Z,16.73
2022-10-18T03:05:50.183Z,16.63
2022-10-18T03:08:17.921Z,16.71
2022-10-18T03:10:45.564Z,16.69
2022-10-18T03:13:13.600Z,16.81
2022-10-18T03:15:42.124Z,16.80
2022-10-18T03:18:09.796Z,17.02
2022-10-18T03:20:37.395Z,17.09
2022-10-18T03:23:07.232Z,17.01
2022-10-18T03:25:35.431Z,17.11
2022-10-18T03:28:03.147Z,16.63
2022-10-18T03:30:30.769Z,16.64
2022-10-18T03:32:58.417Z,16.82
2022-10-18T03:35:26.050Z,16.64
2022-10-18T03:37:53.635Z,16.63
2022-10-18T03:40:22.640Z,16.52
2022-10-18T03:42:50.277Z,16.50
2022-10-18T03:45:17.867Z,16.26
2022-10-18T03:47:45.495Z,16.10
2022-10-18T03:50:13.511Z,16.05
2022-10-18T03:52:41.162Z,16.36
2022-10-18T03:55:09.103Z,16.60
2022-10-18T03:57:38.144Z,16.55
2022-10-18T04:00:06.834Z,16.50
2022-10-18T04:02:34.613Z,16.38
2022-10-18T04:05:02.341Z,16.43
2022-10-18T04:07:30.069Z,16.39
2022-10-18T04:09:57.681Z,16.27
2022-10-18T04:12:25.352Z,16.45
2022-10-18T04:14:55.742Z,16.57
2022-10-18T04:17:23.490Z,16.59
2022-10-18T04:19:51.082Z,16.66
2022-10-18T04:22:18.753Z,16.53
2022-10-18T04:24:46.370Z,16.45
2022-10-18T04:27:13.962Z,16.42
2022-10-18T04:29:41.665Z,16.46
2022-10-18T04:32:10.626Z,16.49
2022-10-18T04:34:38.251Z,16.49
2022-10-18T04:37:06.019Z,16.56
2022-10-18T04:39:33.756Z,16.47
2022-10-18T04:42:01.434Z,16.48
2022-10-18T04:44:29.043Z,16.53
2022-10-18T04:46:56.629Z,16.61
2022-10-18T04:49:25.552Z,16.55
2022-10-18T04:51:53.070Z,16.53
2022-10-18T04:54:21.922Z,16.54
2022-10-18T04:56:51.619Z,16.54
2022-10-18T04:59:19.207Z,16.66
2022-10-18T05:01:46.931Z,16.71
2022-10-18T05:04:14.838Z,16.66
2022-10-18T05:06:45.749Z,16.67
2022-10-18T05:09:32.847Z,16.69
2022-10-18T05:12:23.838Z,16.68
2022-10-18T05:15:00.033Z,16.68
2022-10-18T05:17:48.491Z,16.44
2022-10-18T05:20:16.542Z,16.40
2022-10-18T05:22:45.499Z,16.42
2022-10-18T05:25:13.139Z,16.47
2022-10-18T05:27:40.786Z,16.46
2022-10-18T05:30:09.335Z,16.34
2022-10-18T05:32:36.953Z,16.36
2022-10-18T05:35:04.825Z,16.36
2022-10-18T05:37:32.450Z,16.43
2022-10-18T05:40:01.451Z,16.45
2022-10-18T05:42:29.188Z,16.46
2022-10-18T05:44:56.978Z,16.47
2022-10-18T05:47:24.601Z,16.50
2022-10-18T05:49:52.226Z,16.12
2022-10-18T05:52:20.096Z,16.04
2022-10-18T05:54:47.688Z,15.94
2022-10-18T05:57:16.682Z,15.80
2022-10-18T05:59:45.120Z,15.84
2022-10-18T06:02:13.122Z,15.94
2022-10-18T06:04:40.784Z,16.12
2022-10-18T06:07:09.802Z,15.98
2022-10-18T06:09:38.869Z,16.28
2022-10-18T06:12:08.940Z,16.31
2022-10-18T06:14:38.175Z,16.33
2022-10-18T06:17:05.754Z,16.32
2022-10-18T06:19:33.390Z,16.39
2022-10-18T06:22:00.976Z,16.46
2022-10-18T06:24:29.064Z,16.47
2022-10-18T06:26:56.765Z,16.44
2022-10-18T06:29:24.405Z,16.47
2022-10-18T06:31:53.664Z,16.56
2022-10-18T06:34:21.439Z,16.56
2022-10-18T06:36:49.001Z,16.56
2022-10-18T06:39:16.714Z,16.55
2022-10-18T06:41:44.315Z,16.54
2022-10-18T06:44:14.382Z,16.58
2022-10-18T06:46:42.318Z,16.62
2022-10-18T06:49:13.089Z,16.57
2022-10-18T06:51:43.302Z,16.54
2022-10-18T06:54:18.164Z,16.48
2022-10-18T06:56:46.799Z,16.36
2022-10-18T06:59:14.980Z,16.35
2022-10-18T07:01:43.509Z,16.50
2022-10-18T07:04:12.583Z,16.50
2022-10-18T07:06:40.152Z,16.58
2022-10-18T07:09:07.723Z,16.64
2022-10-18T07:11:35.326Z,16.75
2022-10-18T07:14:04.951Z,16.75
2022-10-18T07:16:34.130Z,16.65
2022-10-18T07:19:01.763Z,16.58
2022-10-18T07:21:31.411Z,16.57
2022-10-18T07:23:59.032Z,16.61
2022-10-18T07:26:29.125Z,16.59
2022-10-18T07:28:59.163Z,16.57
2022-10-18T07:31:27.111Z,16.82
2022-10-18T07:33:57.446Z,17.07
2022-10-18T07:36:25.618Z,17.09
2022-10-18T07:38:54.954Z,17.15
2022-10-18T07:41:23.197Z,17.14
2022-10-18T07:43:52.515Z,17.12
2022-10-18T07:46:21.227Z,17.13
2022-10-18T07:48:49.021Z,17.05
2022-10-18T07:51:16.774Z,16.99
2022-10-18T07:53:44.752Z,16.98
2022-10-18T07:56:16.852Z,16.93
2022-10-18T07:58:44.876Z,17.11
2022-10-18T08:01:13.470Z,17.34
2022-10-18T08:03:42.595Z,17.40
2022-10-18T08:06:12.000Z,17.51
2022-10-18T08:08:41.263Z,17.54
2022-10-18T08:11:11.364Z,17.57
2022-10-18T08:13:40.348Z,17.53
2022-10-18T08:16:10.567Z,17.53
2022-10-18T08:18:39.131Z,17.55
2022-10-18T08:21:09.614Z,17.58
2022-10-18T08:23:38.240Z,17.58
2022-10-18T08:26:07.668Z,17.57
2022-10-18T08:28:36.747Z,17.64
2022-10-18T08:31:07.546Z,17.75
2022-10-18T08:33:35.900Z,17.77
2022-10-18T08:36:06.002Z,17.88
2022-10-18T08:38:34.119Z,17.86
2022-10-18T08:41:07.913Z,17.92
2022-10-18T08:43:41.283Z,18.00
2022-10-18T08:46:13.546Z,18.18
2022-10-18T08:48:45.078Z,18.25
2022-10-18T08:51:19.667Z,18.32
2022-10-18T08:53:56.502Z,18.40
2022-10-18T08:56:24.848Z,18.43
2022-10-18T08:58:52.596Z,18.53
2022-10-18T09:01:40.792Z,18.57
2022-10-18T09:04:28.155Z,18.68
2022-10-18T09:07:12.910Z,18.74
2022-10-18T09:09:47.447Z,18.87
2022-10-18T09:12:34.330Z,18.94
2022-10-18T09:15:13.835Z,18.96
2022-10-18T09:17:57.313Z,19.03
2022-10-18T09:20:26.579Z,19.04
2022-10-18T09:22:56.859Z,19.08
2022-10-18T09:25:26.706Z,19.11
2022-10-18T09:27:57.730Z,19.11
2022-10-18T09:30:42.597Z,19.17
2022-10-18T09:33:27.707Z,19.44
2022-10-18T09:35:58.357Z,19.49
2022-10-18T09:38:30.826Z,19.52
2022-10-18T09:41:03.307Z,19.48
2022-10-18T09:43:43.327Z,19.66
2022-10-18T09:46:11.582Z,19.66
2022-10-18T09:48:46.373Z,19.71
2022-10-18T09:51:21.710Z,19.76
2022-10-18T09:54:03.229Z,19.87
2022-10-18T09:56:39.323Z,19.91
2022-10-18T09:59:30.609Z,19.90
2022-10-18T10:01:58.177Z,19.96
2022-10-18T10:04:27.233Z,20.02
2022-10-18T10:06:57.303Z,20.09
2022-10-18T10:09:29.363Z,20.14
2022-10-18T10:11:57.708Z,20.17
2022-10-18T10:14:27.722Z,20.04
2022-10-18T10:16:57.694Z,20.09
2022-10-18T10:19:33.187Z,20.21
2022-10-18T10:22:05.709Z,20.27
2022-10-18T10:24:46.264Z,20.28
2022-10-18T10:27:21.131Z,20.12
2022-10-18T10:30:02.767Z,20.18
2022-10-18T10:32:47.717Z,20.19
2022-10-18T10:35:52.676Z,20.16
2022-10-18T10:38:25.883Z,20.25
2022-10-18T10:40:54.273Z,20.25
2022-10-18T10:43:37.079Z,20.32
2022-10-18T10:46:08.839Z,20.43
2022-10-18T10:48:46.809Z,20.45
2022-10-18T10:51:17.929Z,20.46
2022-10-18T10:53:52.083Z,20.50
2022-10-18T10:56:25.083Z,20.57
2022-10-18T10:58:54.860Z,20.63
2022-10-18T11:01:28.615Z,20.73
2022-10-18T11:03:58.818Z,20.71
2022-10-18T11:06:35.413Z,20.78
2022-10-18T11:09:06.367Z,20.72
2022-10-18T11:11:40.239Z,20.87
2022-10-18T11:14:25.886Z,20.96
2022-10-18T11:17:04.197Z,21.04
2022-10-18T11:19:40.979Z,21.03
2022-10-18T11:22:16.069Z,20.99
2022-10-18T11:24:44.228Z,21.08
2022-10-18T11:27:16.182Z,21.13
2022-10-18T11:29:55.567Z,21.11
2022-10-18T11:32:32.003Z,21.07
2022-10-18T11:35:13.602Z,21.12
2022-10-18T11:37:58.565Z,21.06
2022-10-18T11:40:42.344Z,21.07
2022-10-18T11:43:17.812Z,21.11
2022-10-18T11:45:55.736Z,20.94
2022-10-18T11:48:41.583Z,21.14
2022-10-18T11:51:16.263Z,21.15
2022-10-18T11:53:56.507Z,21.09
2022-10-18T11:56:33.652Z,21.09
2022-10-18T11:59:15.866Z,21.10
2022-10-18T12:01:54.983Z,21.19
2022-10-18T12:04:25.644Z,21.21
2022-10-18T12:06:57.564Z,21.27
2022-10-18T12:09:30.774Z,21.15
2022-10-18T12:12:03.022Z,21.19
2022-10-18T12:14:33.806Z,21.12
2022-10-18T12:17:39.905Z,21.37
2022-10-18T12:19:56.512Z,21.56
2022-10-18T12:22:29.743Z,21.56
2022-10-18T12:24:58.831Z,21.58
2022-10-18T12:27:35.540Z,21.61
2022-10-18T12:30:14.805Z,21.48
2022-10-18T12:32:56.445Z,21.60
2022-10-18T12:35:35.601Z,21.72
2022-10-18T12:38:22.216Z,21.74
2022-10-18T12:40:53.546Z,21.75
2022-10-18T12:43:25.603Z,21.75
2022-10-18T12:45:55.939Z,21.83
2022-10-18T12:48:31.365Z,21.87
2022-10-18T12:51:01.607Z,21.94
2022-10-18T12:53:30.137Z,21.94
2022-10-18T12:56:37.561Z,21.99
2022-10-18T12:59:51.078Z,21.98
2022-10-18T13:02:36.738Z,21.88
2022-10-18T13:05:56.274Z,22.17
2022-10-18T13:08:39.337Z,22.20
2022-10-18T13:11:35.712Z,22.19
2022-10-18T13:14:20.223Z,22.25
2022-10-18T13:16:54.113Z,22.22
2022-10-18T13:19:28.369Z,22.34
2022-10-18T13:22:12.064Z,22.37
2022-10-18T13:24:45.225Z,22.35
2022-10-18T13:27:37.001Z,22.29
2022-10-18T13:30:39.655Z,22.19
2022-10-18T13:33:25.026Z,22.13
2022-10-18T13:35:56.107Z,22.26
2022-10-18T13:38:43.349Z,22.28
2022-10-18T13:41:13.858Z,22.38
2022-10-18T13:44:11.258Z,22.35
2022-10-18T13:47:18.463Z,22.37
2022-10-18T13:50:19.011Z,22.28
2022-10-18T13:53:06.238Z,22.28
2022-10-18T13:55:46.542Z,22.26
2022-10-18T13:58:22.404Z,22.29
2022-10-18T14:01:05.794Z,22.21
2022-10-18T14:03:57.679Z,22.13
2022-10-18T14:06:29.885Z,22.13
2022-10-18T14:09:09.497Z,22.10
2022-10-18T14:11:50.638Z,22.05
2022-10-18T14:14:26.259Z,21.97
2022-10-18T14:17:00.166Z,21.98
2022-10-18T14:19:34.754Z,21.96
2022-10-18T14:22:12.103Z,21.97
2022-10-18T14:24:44.668Z,21.90
2022-10-18T14:27:17.429Z,21.94
2022-10-18T14:29:45.445Z,21.93
2022-10-18T14:32:25.359Z,21.81
2022-10-18T14:34:55.746Z,21.85
2022-10-18T14:37:32.845Z,21.90
2022-10-18T14:40:00.788Z,21.93
2022-10-18T14:42:29.203Z,21.91
2022-10-18T14:44:57.165Z,21.91
2022-10-18T14:47:28.149Z,21.95
2022-10-18T14:49:57.745Z,22.02
2022-10-18T14:52:32.886Z,22.10
2022-10-18T14:55:03.418Z,22.10
2022-10-18T14:57:34.353Z,22.16
2022-10-18T15:00:04.624Z,22.11
2022-10-18T15:02:37.087Z,22.10
2022-10-18T15:05:09.742Z,22.06
2022-10-18T15:07:37.830Z,22.03
2022-10-18T15:10:07.172Z,22.05
2022-10-18T15:12:41.194Z,21.98
2022-10-18T15:15:27.645Z,21.84
2022-10-18T15:17:57.848Z,21.79
2022-10-18T15:20:28.431Z,21.80
2022-10-18T15:23:23.274Z,21.78
2022-10-18T15:25:51.966Z,21.80
2022-10-18T15:28:30.361Z,21.82
2022-10-18T15:30:58.754Z,21.76
2022-10-18T15:33:33.605Z,21.82
2022-10-18T15:36:11.007Z,21.78
2022-10-18T15:38:38.696Z,21.79
2022-10-18T15:41:40.500Z,21.78
2022-10-18T15:44:13.247Z,21.68
2022-10-18T15:46:41.877Z,21.72
2022-10-18T15:49:56.401Z,21.79
2022-10-18T15:52:41.072Z,21.73
2022-10-18T15:55:56.332Z,21.72
2022-10-18T15:58:26.461Z,21.66
2022-10-18T16:00:57.162Z,21.52
2022-10-18T16:03:25.675Z,21.54
2022-10-18T16:05:58.815Z,21.39
2022-10-18T16:08:30.442Z,21.45
2022-10-18T16:10:58.709Z,21.28
2022-10-18T16:13:26.851Z,21.15
2022-10-18T16:15:56.025Z,21.15
2022-10-18T16:18:25.009Z,21.16
2022-10-18T16:20:53.104Z,21.20
2022-10-18T16:23:22.589Z,21.27
2022-10-18T16:25:52.320Z,21.48
2022-10-18T16:28:21.782Z,21.42
2022-10-18T16:30:55.041Z,21.25
2022-10-18T16:33:22.648Z,21.04
2022-10-18T16:35:50.502Z,21.05
2022-10-18T16:38:32.775Z,21.14
2022-10-18T16:41:06.687Z,21.21
2022-10-18T16:43:35.376Z,21.13
2022-10-18T16:46:04.148Z,21.27
2022-10-18T16:48:32.089Z,21.10
2022-10-18T16:51:00.346Z,21.00
2022-10-18T16:53:28.101Z,20.85
2022-10-18T16:55:58.419Z,20.93
2022-10-18T16:58:28.872Z,20.80
2022-10-18T17:00:56.966Z,20.82
2022-10-18T17:03:25.051Z,20.75
2022-10-18T17:05:53.024Z,20.60
2022-10-18T17:08:23.432Z,20.79
2022-10-18T17:10:53.487Z,20.84
2022-10-18T17:13:21.370Z,20.80
2022-10-18T17:15:51.181Z,20.81
2022-10-18T17:18:21.733Z,20.67
2022-10-18T17:20:49.747Z,20.49
2022-10-18T17:23:17.733Z,20.42
2022-10-18T17:25:58.989Z,20.33
2022-10-18T17:28:34.992Z,20.48
2022-10-18T17:31:06.955Z,20.55
2022-10-18T17:33:34.825Z,20.32
2022-10-18T17:36:02.578Z,20.33
2022-10-18T17:38:30.138Z,20.41
2022-10-18T17:40:57.722Z,20.28
2022-10-18T17:43:25.767Z,20.20
2022-10-18T17:45:56.534Z,20.14
2022-10-18T17:48:25.587Z,20.30
2022-10-18T17:50:53.247Z,20.38
2022-10-18T17:53:22.928Z,20.57
2022-10-18T17:55:50.650Z,20.45
2022-10-18T17:58:18.220Z,20.38
2022-10-18T18:00:45.832Z,20.15
2022-10-18T18:03:13.532Z,20.20
2022-10-18T18:05:42.567Z,20.35
2022-10-18T18:08:10.549Z,20.26
2022-10-18T18:10:38.619Z,20.16
2022-10-18T18:13:06.237Z,20.11
2022-10-18T18:15:33.891Z,20.17
2022-10-18T18:18:01.480Z,20.16
2022-10-18T18:20:29.151Z,20.27
2022-10-18T18:22:58.094Z,20.24
2022-10-18T18:25:25.738Z,20.18
2022-10-18T18:27:54.919Z,20.28
2022-10-18T18:30:23.084Z,20.33
2022-10-18T18:32:50.683Z,20.27
2022-10-18T18:35:18.490Z,20.19
2022-10-18T18:37:50.247Z,20.25
2022-10-18T18:40:19.416Z,20.13
2022-10-18T18:43:01.601Z,20.11
2022-10-18T18:45:34.606Z,20.27
2022-10-18T18:48:02.186Z,20.24
2022-10-18T18:50:31.794Z,20.06
2022-10-18T18:52:59.651Z,20.10
2022-10-18T18:55:28.616Z,20.00
2022-10-18T18:57:56.224Z,20.04
2022-10-18T19:00:23.841Z,20.17
2022-10-18T19:02:51.401Z,20.13
2022-10-18T19:05:19.738Z,19.88
2022-10-18T19:07:47.438Z,20.03
2022-10-18T19:10:15.182Z,19.95
2022-10-18T19:12:44.272Z,19.91
2022-10-18T19:15:12.001Z,19.88
2022-10-18T19:17:39.603Z,19.77
2022-10-18T19:20:07.552Z,19.68
2022-10-18T19:22:35.190Z,19.81
2022-10-18T19:25:02.810Z,19.69
2022-10-18T19:27:30.587Z,19.73
2022-10-18T19:29:59.914Z,19.66
2022-10-18T19:34:56.002Z,19.45
2022-10-18T19:37:23.747Z,19.33
2022-10-18T19:39:51.445Z,19.33
2022-10-18T19:42:25.073Z,19.47
2022-10-18T19:44:53.982Z,19.33
2022-10-18T19:47:22.912Z,19.25
2022-10-18T19:49:51.824Z,19.37
2022-10-18T19:52:19.461Z,19.36
2022-10-18T19:54:49.679Z,19.32
2022-10-18T19:57:17.258Z,19.14
2022-10-18T19:59:44.910Z,19.04
2022-10-18T20:02:15.187Z,19.01
2022-10-18T20:04:44.250Z,18.95
2022-10-18T20:07:11.890Z,18.92
2022-10-18T20:09:39.872Z,18.88
2022-10-18T20:12:07.462Z,18.83
2022-10-18T20:14:35.115Z,18.82
2022-10-18T20:17:02.731Z,18.83
2022-10-18T20:19:30.288Z,18.79
2022-10-18T20:21:59.308Z,18.89
2022-10-18T20:24:26.999Z,18.82
2022-10-18T20:26:54.588Z,18.78
2022-10-18T20:29:25.139Z,18.81
2022-10-18T20:31:56.582Z,18.86
2022-10-18T20:34:25.979Z,18.97
2022-10-18T20:36:55.639Z,19.51
2022-10-18T20:39:24.867Z,19.57
2022-10-18T20:41:52.603Z,19.39
2022-10-18T20:44:22.427Z,19.35
2022-10-18T20:46:50.060Z,19.42
2022-10-18T20:49:17.993Z,19.43
2022-10-18T20:51:46.149Z,19.59
2022-10-18T20:54:14.801Z,19.50
2022-10-18T20:56:43.876Z,19.17
2022-10-18T20:59:12.169Z,18.88
2022-10-18T21:01:40.757Z,18.94
2022-10-18T21:04:10.749Z,18.79
2022-10-18T21:06:41.303Z,18.68
2022-10-18T21:09:11.178Z,18.59
2022-10-18T21:11:44.257Z,18.59
2022-10-18T21:14:15.778Z,18.61
2022-10-18T21:16:44.925Z,18.47
2022-10-18T21:19:14.434Z,18.61
2022-10-18T21:21:43.887Z,18.96
2022-10-18T21:24:11.884Z,18.81
2022-10-18T21:26:39.998Z,18.74
2022-10-18T21:29:07.998Z,18.68
2022-10-18T21:31:39.052Z,18.76
2022-10-18T21:34:09.895Z,18.70
2022-10-18T21:36:38.612Z,18.56
2022-10-18T21:39:09.266Z,18.43
2022-10-18T21:41:37.793Z,18.38
2022-10-18T21:44:09.852Z,18.27
2022-10-18T21:46:40.719Z,18.21
2022-10-18T21:49:08.626Z,18.16
2022-10-18T21:51:36.533Z,18.14
2022-10-18T21:54:05.671Z,18.13
2022-10-18T21:56:34.830Z,18.12
2022-10-18T21:59:03.543Z,18.02
2022-10-18T22:01:33.158Z,18.18
2022-10-18T22:04:03.458Z,18.10
2022-10-18T22:09:08.830Z,18.03
2022-10-18T22:11:39.256Z,18.09
2022-10-18T22:14:07.000Z,18.28
2022-10-18T22:16:34.819Z,18.36
2022-10-18T22:19:05.964Z,18.47
2022-10-18T22:21:34.395Z,18.42
2022-10-18T22:24:06.042Z,18.35
2022-10-18T22:26:36.133Z,18.30
2022-10-18T22:29:06.705Z,18.22
2022-10-18T22:31:35.888Z,18.13
2022-10-18T22:34:07.318Z,18.06
2022-10-18T22:36:35.709Z,18.02
2022-10-18T22:39:05.451Z,17.97
2022-10-18T22:41:34.163Z,17.96
2022-10-18T22:44:03.778Z,17.88
2022-10-18T22:46:32.742Z,17.92
2022-10-18T22:49:04.125Z,17.97
2022-10-18T22:51:31.844Z,17.99
2022-10-18T22:54:01.003Z,18.10
2022-10-18T22:56:28.599Z,18.00
2022-10-18T22:59:02.804Z,18.03
2022-10-18T23:01:33.855Z,18.08
2022-10-18T23:04:03.419Z,18.10
2022-10-18T23:06:34.310Z,18.03
2022-10-18T23:09:04.836Z,18.05
2022-10-18T23:11:38.066Z,18.22
2022-10-18T23:14:07.671Z,18.08
2022-10-18T23:16:37.205Z,17.99
2022-10-18T23:19:04.900Z,17.93
2022-10-18T23:21:34.888Z,17.87
2022-10-18T23:24:02.536Z,17.85
2022-10-18T23:26:32.401Z,17.98
2022-10-18T23:29:00.623Z,17.87
2022-10-18T23:31:30.657Z,17.77
2022-10-18T23:33:59.789Z,17.75
2022-10-18T23:36:27.683Z,17.76
2022-10-18T23:38:57.240Z,17.80
2022-10-18T23:41:25.668Z,17.81
2022-10-18T23:43:53.826Z,17.89
2022-10-18T23:46:21.739Z,17.93
2022-10-18T23:48:51.711Z,17.89
2022-10-18T23:51:19.408Z,17.93
2022-10-18T23:53:47.209Z,17.89
2022-10-18T23:56:17.224Z,17.92
2022-10-18T23:58:45.978Z,17.90
